Time;durP1;ratioP1;P1;durP2;ratioP2;P2;SDS_P1;SDS_P2;PMS_P1;PMS_P2;Temp;Humidity;BMP_temperature;BMP_pressure;BME280_temperature;BME280_humidity;BME280_pressure;Samples;Min_cycle;Max_cycle;Signal;HPM_P1;HPM_P2
2021/05/26 00:00:08;;;;;;;;;;;;;;;9.72;65.60;98485.84;1761872;80;21575;-90
2021/05/26 00:02:36;;;;;;;;;;;;;;;9.65;65.63;98485.44;1762058;80;20679;-90
2021/05/26 00:05:03;;;;;;;;;;;;;;;9.63;65.68;98484.22;1748595;80;20263;-90
2021/05/26 00:07:30;;;;;;;;;;;;;;;9.61;65.74;98490.00;1751936;80;24781;-88
2021/05/26 00:09:56;;;;;;;;;;;;;;;9.64;65.80;98480.67;1753716;80;22240;-90
2021/05/26 00:12:22;;;;;;;;;;;;;;;9.66;65.83;98482.70;1756851;80;21059;-89
2021/05/26 00:14:48;;;;;;;;;;;;;;;9.69;65.85;98481.67;1747961;80;20302;-89
2021/05/26 00:17:14;;;;;;;;;;;;;;;9.70;65.87;98481.21;1752269;80;20238;-89
2021/05/26 00:19:43;;;;;;;;;;;;;;;9.73;65.84;98484.92;1756293;80;24764;-89
2021/05/26 00:22:08;;;;;;;;;;;;;;;9.72;65.86;98486.69;1756268;80;22069;-89
2021/05/26 00:24:34;;;;;;;;;;;;;;;9.73;65.88;98491.45;1746423;80;20967;-89
2021/05/26 00:27:00;;;;;;;;;;;;;;;9.74;65.86;98485.29;1747810;80;24427;-89
2021/05/26 00:29:26;;;;;;;;;;;;;;;9.75;65.88;98481.74;1754502;80;20400;-89
2021/05/26 00:31:58;;;;;;;;;;;;;;;9.74;65.90;98483.98;1745584;80;20807;-88
2021/05/26 00:34:24;;;;;;;;;;;;;;;9.75;65.89;98481.28;1752550;80;22002;-87
2021/05/26 00:36:50;;;;;;;;;;;;;;;9.73;65.87;98484.45;1734192;80;26890;-87
2021/05/26 00:39:17;;;;;;;;;;;;;;;9.69;65.87;98485.59;1761553;80;20325;-87
2021/05/26 00:41:43;;;;;;;;;;;;;;;9.69;65.87;98491.28;1745643;80;20365;-89
2021/05/26 00:44:11;;;;;;;;;;;;;;;9.63;65.83;98489.45;1746792;80;26260;-89
2021/05/26 00:46:40;;;;;;;;;;;;;;;9.63;65.84;98485.52;1719464;82;22795;-89
2021/05/26 00:49:06;;;;;;;;;;;;;;;9.63;65.85;98485.52;1724287;82;25948;-89
2021/05/26 00:51:32;;;;;;;;;;;;;;;9.61;65.88;98493.92;1751086;80;24553;-89
2021/05/26 00:53:59;;;;;;;;;;;;;;;9.57;65.87;98485.92;1749122;80;20591;-89
2021/05/26 00:56:35;;;;;;;;;;;;;;;9.54;65.88;98484.83;1748806;80;24778;-89
2021/05/26 00:59:04;;;;;;;;;;;;;;;9.51;65.87;98477.64;1739507;80;22140;-89
2021/05/26 01:01:30;;;;;;;;;;;;;;;9.47;65.89;98482.23;1741811;80;26003;-89
2021/05/26 01:03:59;;;;;;;;;;;;;;;9.45;65.90;98472.80;1744555;80;24643;-89
2021/05/26 01:06:25;;;;;;;;;;;;;;;9.43;65.89;98470.31;1749884;79;20190;-89
2021/05/26 01:08:53;;;;;;;;;;;;;;;9.39;65.91;98462.28;1749849;80;25648;-90
2021/05/26 01:11:19;;;;;;;;;;;;;;;9.36;65.92;98461.19;1748839;80;22013;-90
2021/05/26 01:13:45;;;;;;;;;;;;;;;9.35;65.92;98462.13;1742406;80;25932;-89
2021/05/26 01:16:15;;;;;;;;;;;;;;;9.35;65.90;98461.28;1754488;80;24540;-89
2021/05/26 01:18:41;;;;;;;;;;;;;;;9.32;65.89;98464.95;1753504;80;20543;-89
2021/05/26 01:21:07;;;;;;;;;;;;;;;9.31;65.90;98456.73;1749641;79;20378;-89
2021/05/26 01:23:38;;;;;;;;;;;;;;;9.32;65.88;98461.03;1712624;80;20199;-90
2021/05/26 01:26:05;;;;;;;;;;;;;;;9.31;65.85;98457.20;1744299;80;26047;-89
2021/05/26 01:28:32;;;;;;;;;;;;;;;9.33;65.84;98450.92;1731579;80;24532;-89
2021/05/26 01:30:59;;;;;;;;;;;;;;;9.35;65.84;98456.90;1744958;80;20199;-89
2021/05/26 01:33:26;;;;;;;;;;;;;;;9.35;65.87;98462.59;1741913;80;25779;-89
2021/05/26 01:35:54;;;;;;;;;;;;;;;9.37;65.87;98463.34;1708529;82;20239;-90
2021/05/26 01:38:21;;;;;;;;;;;;;;;9.35;65.89;98459.51;1753750;80;21008;-90
2021/05/26 01:40:47;;;;;;;;;;;;;;;9.34;65.89;98461.75;1744782;80;24696;-90
2021/05/26 01:43:14;;;;;;;;;;;;;;;9.34;65.90;98460.91;1747426;80;20566;-88
2021/05/26 01:45:43;;;;;;;;;;;;;;;9.35;65.90;98466.50;1752617;80;24794;-87
2021/05/26 01:48:09;;;;;;;;;;;;;;;9.34;65.92;98475.27;1750547;80;21992;-88
2021/05/26 01:50:41;;;;;;;;;;;;;;;9.32;65.93;98480.61;1749755;80;26004;-87
2021/05/26 01:53:08;;;;;;;;;;;;;;;9.30;65.93;98475.10;1742522;80;24624;-87
2021/05/26 01:55:35;;;;;;;;;;;;;;;9.28;65.94;98470.44;1739975;80;20226;-88
2021/05/26 01:58:01;;;;;;;;;;;;;;;9.27;65.95;98475.31;1746843;80;24776;-89
2021/05/26 02:00:33;;;;;;;;;;;;;;;9.23;65.96;98469.42;1753486;79;21988;-89
2021/05/26 02:02:59;;;;;;;;;;;;;;;9.24;65.94;98477.64;1743174;80;26071;-89
2021/05/26 02:05:25;;;;;;;;;;;;;;;9.24;65.95;98471.95;1736515;79;20405;-90
2021/05/26 02:07:53;;;;;;;;;;;;;;;9.24;65.95;98470.64;1734243;80;20520;-89
2021/05/26 02:12:20;;;;;;;;;;;;;;;9.27;65.98;98471.40;1753942;80;25457;-89
2021/05/26 02:12:48;;;;;;;;;;;;;;;9.24;66.00;98465.89;1753788;80;22970;-90
2021/05/26 02:15:15;;;;;;;;;;;;;;;9.19;65.99;98462.73;1745947;80;26021;-90
2021/05/26 02:17:44;;;;;;;;;;;;;;;9.17;66.01;98460.21;1748656;80;24454;-90
2021/05/26 02:20:10;;;;;;;;;;;;;;;9.14;66.02;98468.25;1756136;80;20230;-90
2021/05/26 02:22:39;;;;;;;;;;;;;;;9.13;66.01;98460.51;1749033;79;24765;-87
2021/05/26 02:25:09;;;;;;;;;;;;;;;9.12;65.99;98459.67;1744485;80;21989;-88
2021/05/26 02:27:35;;;;;;;;;;;;;;;9.11;66.00;98460.59;1753697;80;26874;-87
2021/05/26 02:30:01;;;;;;;;;;;;;;;9.12;65.99;98456.22;1757029;79;20896;-87
2021/05/26 02:32:27;;;;;;;;;;;;;;;9.14;65.97;98455.20;1755164;80;20243;-89
2021/05/26 02:34:53;;;;;;;;;;;;;;;9.16;66.01;98448.58;1749296;80;24877;-89
2021/05/26 02:37:23;;;;;;;;;;;;;;;9.17;66.00;98450.23;1754152;80;20815;-89
2021/05/26 02:39:49;;;;;;;;;;;;;;;9.16;66.00;98446.78;1749759;80;25961;-89
2021/05/26 02:42:17;;;;;;;;;;;;;;;9.13;65.99;98447.45;1745802;80;24471;-89
2021/05/26 02:44:43;;;;;;;;;;;;;;;9.12;66.02;98447.08;1728838;82;20807;-89
2021/05/26 02:47:09;;;;;;;;;;;;;;;9.12;66.03;98457.52;1757967;80;20254;-90
2021/05/26 02:49:34;;;;;;;;;;;;;;;9.06;66.03;98451.38;1745963;80;20816;-89
2021/05/26 02:52:01;;;;;;;;;;;;;;;9.04;66.02;98455.42;1743535;80;26013;-90
2021/05/26 02:54:28;;;;;;;;;;;;;;;9.03;66.05;98448.98;1667699;81;21288;-88
2021/05/26 02:56:55;;;;;;;;;;;;;;;9.01;66.07;98446.92;1664593;85;20708;-89
2021/05/26 02:59:21;;;;;;;;;;;;;;;8.98;66.08;98444.52;1641216;85;20402;-89
2021/05/26 03:01:47;;;;;;;;;;;;;;;8.95;66.08;98446.00;1667225;85;22065;-89
2021/05/26 03:04:13;;;;;;;;;;;;;;;8.90;66.09;98449.38;1652585;86;26004;-90
2021/05/26 03:06:39;;;;;;;;;;;;;;;8.87;66.07;98441.28;1666817;84;20386;-90
2021/05/26 03:09:09;;;;;;;;;;;;;;;8.84;66.10;98445.87;1668625;84;20755;-90
2021/05/26 03:11:35;;;;;;;;;;;;;;;8.77;66.12;98447.55;1633783;85;25330;-90
2021/05/26 03:14:02;;;;;;;;;;;;;;;8.75;66.16;98452.02;1668607;84;22562;-90
2021/05/26 03:16:28;;;;;;;;;;;;;;;8.69;66.19;98453.70;1674184;84;26322;-90
2021/05/26 03:18:56;;;;;;;;;;;;;;;8.63;66.21;98456.68;1675731;85;20687;-90
2021/05/26 03:21:22;;;;;;;;;;;;;;;8.61;66.24;98454.66;1674297;84;20355;-90
2021/05/26 03:23:47;;;;;;;;;;;;;;;8.59;66.28;98456.97;1673708;84;24980;-90
2021/05/26 03:26:14;;;;;;;;;;;;;;;8.59;66.32;98466.94;1677227;84;20331;-90
2021/05/26 03:28:40;;;;;;;;;;;;;;;8.60;66.38;98467.31;1675143;85;26033;-90
2021/05/26 03:31:06;;;;;;;;;;;;;;;8.59;66.43;98465.63;1677796;85;24432;-90
2021/05/26 03:33:33;;;;;;;;;;;;;;;8.63;66.52;98473.64;1674190;84;20234;-90
2021/05/26 03:35:59;;;;;;;;;;;;;;;8.73;66.58;98465.61;1676787;84;24741;-90
2021/05/26 03:38:25;;;;;;;;;;;;;;;8.84;66.66;98468.05;1673679;84;22045;-91
2021/05/26 03:40:51;;;;;;;;;;;;;;;8.96;66.76;98468.56;1676898;84;26065;-90
2021/05/26 03:43:17;;;;;;;;;;;;;;;9.07;66.81;98455.67;1674937;84;20332;-91
2021/05/26 03:45:43;;;;;;;;;;;;;;;9.16;66.87;98456.42;1677472;84;20305;-91
2021/05/26 03:48:11;;;;;;;;;;;;;;;9.27;66.90;98467.02;1673339;84;24954;-88
2021/05/26 03:50:37;;;;;;;;;;;;;;;9.41;66.89;98460.89;1675231;85;22781;-87
2021/05/26 03:53:05;;;;;;;;;;;;;;;9.58;66.89;98473.23;1676815;83;26020;-87
2021/05/26 03:55:31;;;;;;;;;;;;;;;9.69;66.90;98473.84;1688107;83;24599;-87
2021/05/26 03:57:57;;;;;;;;;;;;;;;9.73;66.88;98471.85;1691695;82;20239;-87
2021/05/26 04:00:24;;;;;;;;;;;;;;;9.75;66.83;98475.21;1692016;82;25014;-87
2021/05/26 04:02:50;;;;;;;;;;;;;;;9.74;66.73;98482.67;1693217;82;22028;-87
2021/05/26 04:05:16;;;;;;;;;;;;;;;9.79;66.68;98473.59;1691562;82;26125;-89
2021/05/26 04:07:42;;;;;;;;;;;;;;;9.82;66.61;98475.19;1695689;84;24392;-89
2021/05/26 04:10:15;;;;;;;;;;;;;;;9.89;66.59;98480.35;1682057;83;20198;-89
2021/05/26 04:12:41;;;;;;;;;;;;;;;9.95;66.54;98479.95;1682207;83;25396;-89
2021/05/26 04:15:07;;;;;;;;;;;;;;;10.00;66.53;98487.86;1677638;83;20285;-89
2021/05/26 04:17:33;;;;;;;;;;;;;;;10.03;66.46;98483.75;1694457;83;26039;-89
2021/05/26 04:20:06;;;;;;;;;;;;;;;10.06;66.42;98486.61;1692890;82;24629;-89
2021/05/26 04:22:37;;;;;;;;;;;;;;;10.12;66.37;98484.89;1689403;82;20527;-88
2021/05/26 04:25:16;;;;;;;;;;;;;;;10.14;66.32;98477.80;1694640;83;20277;-88
2021/05/26 04:27:42;;;;;;;;;;;;;;;10.17;66.29;98480.22;1679106;84;22128;-89
2021/05/26 04:30:10;;;;;;;;;;;;;;;10.18;66.18;98482.37;1691660;83;21254;-89
2021/05/26 04:32:36;;;;;;;;;;;;;;;10.21;66.11;98487.38;1684846;84;24430;-88
2021/05/26 04:35:02;;;;;;;;;;;;;;;10.22;66.04;98484.67;1687576;83;20278;-87
2021/05/26 04:37:28;;;;;;;;;;;;;;;10.28;65.98;98489.48;1680370;82;24835;-88
2021/05/26 04:39:54;;;;;;;;;;;;;;;10.37;65.95;98486.70;1687468;82;21998;-87
2021/05/26 04:42:20;;;;;;;;;;;;;;;10.36;65.85;98485.06;1688600;83;26210;-87
2021/05/26 04:44:53;;;;;;;;;;;;;;;10.39;65.78;98488.76;1691833;83;24498;-86
2021/05/26 04:47:19;;;;;;;;;;;;;;;10.43;65.72;98479.28;1683038;82;20247;-87
2021/05/26 04:49:45;;;;;;;;;;;;;;;10.51;65.68;98485.78;1696133;83;24832;-88
2021/05/26 04:52:11;;;;;;;;;;;;;;;10.58;65.66;98472.18;1683651;83;21983;-88
2021/05/26 04:54:37;;;;;;;;;;;;;;;10.63;65.64;98480.55;1698828;83;26129;-88
2021/05/26 04:57:03;;;;;;;;;;;;;;;10.66;65.59;98474.25;1694416;82;20339;-88
2021/05/26 04:59:29;;;;;;;;;;;;;;;10.68;65.54;98471.91;1699963;83;20203;-88
2021/05/26 05:01:55;;;;;;;;;;;;;;;10.73;65.48;98479.43;1693146;83;20405;-87
2021/05/26 05:04:29;;;;;;;;;;;;;;;10.81;65.42;98484.48;1681487;81;20257;-88
2021/05/26 05:07:01;;;;;;;;;;;;;;;10.87;65.38;98477.98;1693782;83;25903;-89
2021/05/26 05:09:33;;;;;;;;;;;;;;;10.91;65.31;98478.12;1698557;83;24570;-88
2021/05/26 05:12:00;;;;;;;;;;;;;;;10.98;65.21;98487.22;1702523;82;20266;-88
2021/05/26 05:14:28;;;;;;;;;;;;;;;11.06;65.16;98480.15;1695535;83;24919;-89
2021/05/26 05:16:56;;;;;;;;;;;;;;;11.16;65.18;98481.16;1688475;82;22005;-89
2021/05/26 05:19:25;;;;;;;;;;;;;;;11.26;65.17;98481.70;1688179;83;25938;-88
2021/05/26 05:21:51;;;;;;;;;;;;;;;11.33;65.14;98469.00;1706155;83;24426;-88
2021/05/26 05:24:20;;;;;;;;;;;;;;;11.42;65.03;98479.28;1695884;83;20223;-90
2021/05/26 05:26:54;;;;;;;;;;;;;;;11.53;64.96;98483.27;1683736;81;24712;-89
2021/05/26 05:29:36;;;;;;;;;;;;;;;11.58;64.86;98478.05;1677168;83;21984;-89
2021/05/26 05:32:10;;;;;;;;;;;;;;;11.68;64.77;98484.76;1701270;83;26013;-88
2021/05/26 05:34:40;;;;;;;;;;;;;;;11.77;64.69;98479.36;1708379;83;24434;-88
2021/05/26 05:37:16;;;;;;;;;;;;;;;11.83;64.61;98477.60;1686083;83;20265;-88
2021/05/26 05:39:55;;;;;;;;;;;;;;;11.92;64.53;98488.71;1697592;82;24627;-88
2021/05/26 05:42:23;;;;;;;;;;;;;;;11.96;64.42;98487.05;1705220;82;21934;-88
2021/05/26 05:44:53;;;;;;;;;;;;;;;12.02;64.34;98481.35;1693342;81;26049;-88
2021/05/26 05:47:21;;;;;;;;;;;;;;;12.04;64.23;98479.46;1698240;82;24431;-88
2021/05/26 05:49:51;;;;;;;;;;;;;;;12.06;64.04;98470.98;1695286;83;20306;-87
2021/05/26 05:52:23;;;;;;;;;;;;;;;12.09;63.95;98469.93;1674949;83;25375;-88
2021/05/26 05:57:33;;;;;;;;;;;;;;;12.21;63.88;98474.26;1690485;83;26005;-88
2021/05/26 06:00:00;;;;;;;;;;;;;;;12.29;63.84;98472.34;1686328;83;25238;-89
2021/05/26 06:02:32;;;;;;;;;;;;;;;12.33;63.73;98479.86;1686760;83;20233;-89
2021/05/26 06:04:58;;;;;;;;;;;;;;;12.35;63.58;98479.75;1689984;83;24756;-89
2021/05/26 06:07:24;;;;;;;;;;;;;;;12.38;63.47;98472.98;1695459;83;20296;-89
2021/05/26 06:09:51;;;;;;;;;;;;;;;12.43;63.37;98473.45;1685499;83;21175;-89
2021/05/26 06:12:18;;;;;;;;;;;;;;;12.49;63.36;98469.05;1689141;83;25213;-88
2021/05/26 06:14:45;;;;;;;;;;;;;;;12.52;63.31;98452.58;1685534;83;20357;-89
2021/05/26 06:17:12;;;;;;;;;;;;;;;12.60;63.23;98471.66;1691826;83;24798;-89
2021/05/26 06:19:38;;;;;;;;;;;;;;;12.68;63.23;98464.50;1677907;83;21969;-90
2021/05/26 06:22:04;;;;;;;;;;;;;;;12.75;63.17;98463.92;1690321;83;26024;-90
2021/05/26 06:24:30;;;;;;;;;;;;;;;12.87;63.02;98461.63;1696184;82;20736;-89
2021/05/26 06:26:56;;;;;;;;;;;;;;;12.97;62.90;98467.84;1690299;82;20265;-89
2021/05/26 06:29:23;;;;;;;;;;;;;;;13.06;62.73;98466.27;1688889;82;24744;-90
2021/05/26 06:31:48;;;;;;;;;;;;;;;13.16;62.57;98469.03;1689166;83;22084;-89
2021/05/26 06:34:18;;;;;;;;;;;;;;;13.25;62.41;98464.38;1692829;82;26193;-89
2021/05/26 06:36:44;;;;;;;;;;;;;;;13.35;62.19;98465.30;1677314;82;24382;-89
2021/05/26 06:39:11;;;;;;;;;;;;;;;13.45;61.95;98473.27;1689969;84;20307;-89
2021/05/26 06:41:37;;;;;;;;;;;;;;;13.52;61.72;98454.73;1687823;83;24785;-89
2021/05/26 06:44:03;;;;;;;;;;;;;;;13.59;61.35;98472.97;1697341;83;21942;-89
2021/05/26 06:46:29;;;;;;;;;;;;;;;13.62;61.10;98461.74;1689822;83;26020;-89
2021/05/26 06:48:55;;;;;;;;;;;;;;;13.65;60.81;98466.73;1686928;83;20242;-89
2021/05/26 06:51:24;;;;;;;;;;;;;;;13.72;60.49;98472.34;1677650;83;20206;-89
2021/05/26 06:53:50;;;;;;;;;;;;;;;13.78;60.15;98465.27;1689931;83;20218;-89
2021/05/26 06:56:20;;;;;;;;;;;;;;;13.85;59.77;98465.12;1699901;82;20337;-90
2021/05/26 06:58:46;;;;;;;;;;;;;;;13.93;59.40;98467.94;1712375;82;25941;-90
2021/05/26 07:01:15;;;;;;;;;;;;;;;14.00;59.00;98466.47;1692069;83;20310;-90
2021/05/26 07:03:41;;;;;;;;;;;;;;;14.07;58.80;98464.98;1695670;83;20296;-90
2021/05/26 07:06:07;;;;;;;;;;;;;;;14.14;58.61;98463.51;1701941;83;20361;-90
2021/05/26 07:08:33;;;;;;;;;;;;;;;14.24;58.38;98470.14;1701062;82;22041;-90
2021/05/26 07:10:59;;;;;;;;;;;;;;;14.31;58.21;98463.41;1698835;82;26166;-90
2021/05/26 07:13:26;;;;;;;;;;;;;;;14.39;58.02;98464.95;1688417;82;24519;-90
2021/05/26 07:15:59;;;;;;;;;;;;;;;14.44;57.66;98459.30;1697582;83;20195;-90
2021/05/26 07:18:26;;;;;;;;;;;;;;;14.51;57.37;98465.20;1706492;83;24792;-90
2021/05/26 07:20:53;;;;;;;;;;;;;;;14.59;57.18;98456.66;1695108;82;22236;-89
2021/05/26 07:23:22;;;;;;;;;;;;;;;14.69;56.97;98451.43;1693099;82;26277;-90
2021/05/26 07:25:48;;;;;;;;;;;;;;;14.79;56.77;98454.94;1702453;82;25137;-90
2021/05/26 07:28:14;;;;;;;;;;;;;;;14.87;56.60;98457.75;1696813;83;20349;-90
2021/05/26 07:30:40;;;;;;;;;;;;;;;14.95;56.37;98458.73;1694973;82;24755;-90
2021/05/26 07:33:11;;;;;;;;;;;;;;;15.05;56.23;98458.80;1700249;83;21991;-90
2021/05/26 07:35:35;;;;;;;;;;;;;;;15.19;56.19;98448.34;1696664;83;26086;-90
2021/05/26 07:38:02;;;;;;;;;;;;;;;15.27;56.09;98453.30;1698813;83;24756;-90
2021/05/26 07:40:31;;;;;;;;;;;;;;;15.39;55.94;98452.19;1703762;83;20270;-90
2021/05/26 07:42:57;;;;;;;;;;;;;;;15.48;55.84;98459.78;1693418;83;24763;-90
2021/05/26 07:45:23;;;;;;;;;;;;;;;15.53;55.68;98456.75;1686633;83;22100;-90
2021/05/26 07:47:49;;;;;;;;;;;;;;;15.54;55.48;98460.58;1696276;83;25916;-90
2021/05/26 07:50:16;;;;;;;;;;;;;;;15.48;55.14;98456.66;1697802;82;20214;-90
2021/05/26 07:52:42;;;;;;;;;;;;;;;15.53;54.95;98455.44;1708475;82;20290;-90
2021/05/26 07:55:08;;;;;;;;;;;;;;;15.58;54.83;98455.85;1712691;82;24781;-90
2021/05/26 07:57:38;;;;;;;;;;;;;;;15.62;54.67;98466.47;1708413;83;22781;-90
2021/05/26 08:00:11;;;;;;;;;;;;;;;15.70;54.55;98452.13;1712400;82;25968;-90
2021/05/26 08:02:38;;;;;;;;;;;;;;;15.70;54.36;98442.88;1677460;84;24429;-90
2021/05/26 08:05:06;;;;;;;;;;;;;;;15.73;54.27;98440.79;1699881;83;20284;-90
2021/05/26 08:07:32;;;;;;;;;;;;;;;15.76;54.18;98448.45;1672980;85;24839;-89
2021/05/26 08:09:58;;;;;;;;;;;;;;;15.79;53.98;98449.47;1699122;83;20266;-90
2021/05/26 08:12:24;;;;;;;;;;;;;;;15.83;53.77;98438.14;1673231;84;20921;-90
2021/05/26 08:14:51;;;;;;;;;;;;;;;15.92;53.69;98439.13;1704999;82;24417;-90
2021/05/26 08:17:17;;;;;;;;;;;;;;;15.96;53.59;98439.19;1705641;82;20366;-89
2021/05/26 08:19:43;;;;;;;;;;;;;;;16.00;53.57;98435.28;1703505;82;24771;-88
2021/05/26 08:22:09;;;;;;;;;;;;;;;16.02;53.47;98438.14;1703322;82;22053;-88
2021/05/26 08:24:35;;;;;;;;;;;;;;;15.97;53.27;98440.37;1702723;82;21171;-88
2021/05/26 08:27:01;;;;;;;;;;;;;;;15.98;53.14;98438.08;1701849;84;24362;-88
2021/05/26 08:29:29;;;;;;;;;;;;;;;16.04;53.15;98431.41;1680854;84;20284;-89
2021/05/26 08:31:58;;;;;;;;;;;;;;;16.10;53.09;98442.20;1683882;83;24947;-89
2021/05/26 08:34:25;;;;;;;;;;;;;;;16.10;52.95;98427.69;1678549;84;21979;-88
2021/05/26 08:36:57;;;;;;;;;;;;;;;16.17;52.85;98423.52;1704847;83;23695;-89
2021/05/26 08:39:21;;;;;;;;;;;;;;;16.28;52.79;98422.52;1705238;82;24421;-89
2021/05/26 08:41:52;;;;;;;;;;;;;;;16.34;52.70;98424.59;1671949;84;20645;-90
2021/05/26 08:44:18;;;;;;;;;;;;;;;16.36;52.59;98418.69;1699027;82;25714;-90
2021/05/26 08:46:46;;;;;;;;;;;;;;;16.33;52.39;98415.83;1696711;83;22001;-89
2021/05/26 08:49:17;;;;;;;;;;;;;;;16.31;52.20;98412.48;1703854;82;25965;-87
2021/05/26 08:51:42;;;;;;;;;;;;;;;16.26;52.06;98424.45;1698979;84;24449;-86
2021/05/26 08:54:08;;;;;;;;;;;;;;;16.23;51.97;98422.11;1698966;84;20264;-86
2021/05/26 08:56:34;;;;;;;;;;;;;;;16.28;51.90;98419.88;1699665;82;25305;-87
2021/05/26 08:59:00;;;;;;;;;;;;;;;16.38;51.79;98419.84;1700926;82;22109;-86
2021/05/26 09:01:27;;;;;;;;;;;;;;;16.44;51.49;98413.98;1701830;82;26081;-87
2021/05/26 09:03:55;;;;;;;;;;;;;;;16.47;51.27;98417.67;1700285;84;20248;-86
2021/05/26 09:06:21;;;;;;;;;;;;;;;16.46;51.12;98412.05;1692306;84;20241;-86
2021/05/26 09:08:53;;;;;;;;;;;;;;;16.55;51.17;98407.20;1696396;84;24753;-86
2021/05/26 09:11:22;;;;;;;;;;;;;;;16.65;51.19;98404.05;1700752;83;22070;-87
2021/05/26 09:13:47;;;;;;;;;;;;;;;16.76;51.19;98401.70;1696079;84;26676;-87
2021/05/26 09:16:25;;;;;;;;;;;;;;;16.82;51.18;98384.78;1696311;82;20770;-87
2021/05/26 09:19:01;;;;;;;;;;;;;;;16.79;51.05;98398.79;1709206;82;20221;-86
2021/05/26 09:21:43;;;;;;;;;;;;;;;16.77;50.87;98398.93;1702835;82;24890;-86
2021/05/26 09:24:20;;;;;;;;;;;;;;;16.88;50.83;98386.84;1696822;82;21986;-86
2021/05/26 09:26:50;;;;;;;;;;;;;;;17.06;50.82;98389.52;1693908;84;25941;-89
2021/05/26 09:29:18;;;;;;;;;;;;;;;17.28;50.78;98387.77;1687982;84;24415;-91
2021/05/26 09:31:44;;;;;;;;;;;;;;;17.40;50.25;98374.64;1697624;82;20217;-90
2021/05/26 09:34:11;;;;;;;;;;;;;;;17.39;49.57;98385.39;1696965;84;24791;-90
2021/05/26 09:36:36;;;;;;;;;;;;;;;17.32;48.87;98381.68;1701331;82;21910;-90
2021/05/26 09:39:04;;;;;;;;;;;;;;;17.32;48.53;98379.03;1693011;82;26671;-90
2021/05/26 09:41:32;;;;;;;;;;;;;;;17.37;48.38;98373.63;1695698;83;24433;-90
2021/05/26 09:44:00;;;;;;;;;;;;;;;17.42;48.12;98381.95;1696553;82;20308;-90
2021/05/26 09:46:28;;;;;;;;;;;;;;;17.46;47.91;98370.55;1698841;82;24625;-90
2021/05/26 09:49:08;;;;;;;;;;;;;;;17.47;47.60;98374.38;1697085;84;21988;-90
2021/05/26 09:51:41;;;;;;;;;;;;;;;17.51;47.37;98359.05;1701753;84;26027;-89
2021/05/26 09:54:12;;;;;;;;;;;;;;;17.57;47.32;98359.25;1696815;84;24593;-90
2021/05/26 09:56:39;;;;;;;;;;;;;;;17.69;47.27;98350.61;1703385;82;20281;-89
2021/05/26 09:59:05;;;;;;;;;;;;;;;17.74;46.99;98352.30;1695421;84;24857;-87
2021/05/26 10:04:19;;;;;;;;;;;;;;;17.74;46.51;98348.82;1695476;83;26032;-87
2021/05/26 10:06:46;;;;;;;;;;;;;;;17.80;46.46;98341.10;1693050;83;24482;-87
2021/05/26 10:09:13;;;;;;;;;;;;;;;17.92;46.56;98346.98;1691592;84;20253;-88
2021/05/26 10:11:41;;;;;;;;;;;;;;;18.06;46.61;98333.64;1693515;84;20561;-88
2021/05/26 10:16:56;;;;;;;;;;;;;;;18.18;46.33;98335.05;1691910;84;26043;-86
2021/05/26 10:19:23;;;;;;;;;;;;;;;18.18;46.08;98337.20;1670997;85;24678;-86
2021/05/26 10:21:50;;;;;;;;;;;;;;;18.21;45.88;98333.42;1701667;83;20308;-86
2021/05/26 10:24:17;;;;;;;;;;;;;;;18.20;45.56;98328.62;1700369;83;24938;-88
2021/05/26 10:26:56;;;;;;;;;;;;;;;18.21;45.27;98327.64;1701332;83;21941;-86
2021/05/26 10:29:38;;;;;;;;;;;;;;;18.24;45.12;98326.47;1705783;83;26876;-85
2021/05/26 10:32:07;;;;;;;;;;;;;;;18.26;45.04;98327.16;1701805;83;24690;-86
2021/05/26 10:34:46;;;;;;;;;;;;;;;18.35;44.98;98326.20;1698053;83;20220;-85
2021/05/26 10:37:13;;;;;;;;;;;;;;;18.47;44.95;98328.08;1701157;83;25568;-85
2021/05/26 10:39:39;;;;;;;;;;;;;;;18.43;44.46;98316.98;1702157;83;22047;-85
2021/05/26 10:42:07;;;;;;;;;;;;;;;18.36;44.12;98322.07;1703534;83;26012;-89
2021/05/26 10:47:46;;;;;;;;;;;;;;;18.34;43.83;98310.80;1701262;83;20295;-89
2021/05/26 10:50:17;;;;;;;;;;;;;;;18.34;43.58;98296.70;1702166;83;24786;-89
2021/05/26 10:52:57;;;;;;;;;;;;;;;18.36;43.49;98300.87;1697552;83;21927;-89
2021/05/26 10:55:43;;;;;;;;;;;;;;;18.39;43.30;98299.70;1700855;83;26031;-89
2021/05/26 10:58:34;;;;;;;;;;;;;;;18.43;43.38;98297.10;1698061;83;24710;-88
2021/05/26 11:01:03;;;;;;;;;;;;;;;18.44;43.29;98296.61;1697161;83;20258;-88
2021/05/26 11:03:31;;;;;;;;;;;;;;;18.51;43.48;98287.00;1701450;83;24778;-88
2021/05/26 11:06:01;;;;;;;;;;;;;;;18.60;43.52;98296.17;1698412;83;22190;-88
2021/05/26 11:08:28;;;;;;;;;;;;;;;18.67;43.50;98286.59;1701542;83;25953;-88
2021/05/26 11:10:54;;;;;;;;;;;;;;;18.76;43.56;98278.98;1700264;83;24508;-88
2021/05/26 11:13:20;;;;;;;;;;;;;;;18.83;43.51;98273.03;1697719;83;20344;-88
2021/05/26 11:15:47;;;;;;;;;;;;;;;18.91;43.44;98272.57;1712932;83;20228;-88
2021/05/26 11:18:28;;;;;;;;;;;;;;;19.00;43.35;98276.89;1712411;82;22197;-88
2021/05/26 11:20:44;;;;;;;;;;;;;;;19.04;43.23;98271.58;1712529;83;25994;-88
2021/05/26 11:23:11;;;;;;;;;;;;;;;19.09;43.13;98273.77;1707644;83;24278;-88
2021/05/26 11:25:38;;;;;;;;;;;;;;;19.08;42.99;98268.95;1712480;83;20291;-88
2021/05/26 11:28:10;;;;;;;;;;;;;;;19.08;43.01;98264.14;1713928;83;24851;-88
2021/05/26 11:30:36;;;;;;;;;;;;;;;19.14;43.01;98259.50;1706417;82;22786;-88
2021/05/26 11:33:05;;;;;;;;;;;;;;;19.29;43.15;98259.66;1714328;82;22091;-88
2021/05/26 11:35:32;;;;;;;;;;;;;;;19.40;42.93;98258.00;1709756;82;24569;-89
2021/05/26 11:37:58;;;;;;;;;;;;;;;19.47;42.64;98251.91;1710973;82;20213;-89
2021/05/26 11:40:26;;;;;;;;;;;;;;;19.56;42.40;98254.03;1713732;82;24748;-89
2021/05/26 11:42:53;;;;;;;;;;;;;;;19.67;42.53;98247.05;1715862;82;22078;-89
2021/05/26 11:45:22;;;;;;;;;;;;;;;19.72;42.19;98243.88;1675617;84;22911;-88
2021/05/26 11:47:49;;;;;;;;;;;;;;;19.64;41.74;98234.92;1684689;84;24027;-88
2021/05/26 11:50:18;;;;;;;;;;;;;;;19.65;41.57;98233.10;1702052;83;20315;-88
2021/05/26 11:52:46;;;;;;;;;;;;;;;19.65;41.51;98229.12;1708863;83;24906;-90
2021/05/26 11:55:15;;;;;;;;;;;;;;;19.70;41.50;98229.44;1697500;83;22717;-89
2021/05/26 11:57:43;;;;;;;;;;;;;;;19.79;41.54;98232.42;1712313;83;26550;-89
2021/05/26 12:00:10;;;;;;;;;;;;;;;19.84;41.44;98218.13;1678815;84;24359;-90
2021/05/26 12:02:53;;;;;;;;;;;;;;;19.88;41.24;98223.92;1704281;83;20348;-88
2021/05/26 12:05:38;;;;;;;;;;;;;;;19.93;41.17;98214.44;1705432;83;25044;-89
2021/05/26 12:08:16;;;;;;;;;;;;;;;19.95;41.18;98212.45;1671421;85;20223;-89
2021/05/26 12:10:42;;;;;;;;;;;;;;;19.97;41.21;98210.94;1703788;83;25936;-89
2021/05/26 12:13:11;;;;;;;;;;;;;;;20.05;41.14;98208.26;1686627;84;24484;-89
2021/05/26 12:18:20;;;;;;;;;;;;;;;20.24;40.95;98201.68;1654564;85;24972;-90
2021/05/26 12:20:54;;;;;;;;;;;;;;;20.39;40.95;98189.36;1679912;84;20228;-89
2021/05/26 12:23:37;;;;;;;;;;;;;;;20.50;40.73;98200.94;1658756;85;26497;-89
2021/05/26 12:26:06;;;;;;;;;;;;;;;20.60;40.63;98193.55;1693502;83;24527;-89
2021/05/26 12:28:31;;;;;;;;;;;;;;;20.72;40.47;98183.34;1665466;85;20230;-89
2021/05/26 12:30:57;;;;;;;;;;;;;;;20.85;40.38;98184.88;1673332;85;20304;-89
2021/05/26 12:33:24;;;;;;;;;;;;;;;20.90;40.03;98181.19;1658933;85;20365;-89
2021/05/26 12:36:00;;;;;;;;;;;;;;;20.89;39.60;98184.88;1656431;85;25919;-89
2021/05/26 12:38:29;;;;;;;;;;;;;;;20.81;39.09;98182.27;1689686;84;24433;-89
2021/05/26 12:40:57;;;;;;;;;;;;;;;20.73;38.78;98174.36;1696628;83;20265;-89
2021/05/26 12:43:24;;;;;;;;;;;;;;;20.74;38.85;98168.84;1667999;85;24605;-89
2021/05/26 12:45:52;;;;;;;;;;;;;;;20.81;38.89;98165.80;1675482;85;22117;-89
2021/05/26 12:48:20;;;;;;;;;;;;;;;20.90;38.64;98169.22;1671720;85;21216;-89
2021/05/26 12:50:47;;;;;;;;;;;;;;;20.91;38.24;98163.39;1676033;85;24476;-89
2021/05/26 12:53:14;;;;;;;;;;;;;;;20.73;37.84;98164.52;1661490;85;20279;-89
2021/05/26 12:55:40;;;;;;;;;;;;;;;20.49;37.53;98165.20;1685132;84;24856;-89
2021/05/26 12:58:10;;;;;;;;;;;;;;;20.28;37.33;98159.16;1660257;85;22013;-89
2021/05/26 13:00:37;;;;;;;;;;;;;;;20.18;37.40;98156.73;1658162;85;25937;-89
2021/05/26 13:03:04;;;;;;;;;;;;;;;20.08;37.41;98153.94;1661301;85;24404;-89
2021/05/26 13:05:32;;;;;;;;;;;;;;;20.01;37.41;98139.22;1657042;85;20275;-89
2021/05/26 13:08:16;;;;;;;;;;;;;;;20.05;37.54;98140.52;1655177;85;24767;-89